Basin, Mississippi
Current Conditions -  °F | °C
As of 4:56 PM on Tuesday 27 Jan 2015 (Local Time) from KMOB Reporting Station
Clear Clear  
Wind Chill: 65°   Ceiling: Unl
Heat Index: 65°   Visibility: 10mi
Dew Point: 33°   Wind: 7mph
Humidity: 31%   Direction: 310°NW
Pressure: 30.05"   Gusts: NA
Location:  30.8443°N, 88.5703°W
Report Text: KMOB 272256Z 31006KT 10SM CLR 18/01 A3005 RMK AO2 SLP175 T01830006
Loading
Personal Weather Stations






























Interactive Weather Map New forecast layout! Learn more

10-Day Weather Forecast

Advertisements
Track Severe Weather on mobile